Al Rawdah — V7VM8 — position and weather

sailwx.info

Track history (hours):
 
Tides and Currents Weather Stations Pressure Air Temp Water Temp Dewpoint Dewpoint Depression Visibility Wind Speed Wind Dir Waves Ship Positions

Al Rawdah

Last reported at 2014-Nov-21 16:32 UTC. Time now 2014-Nov-21 16:37 UTC.
Position N 40°40' W 074°05'.

Length 307 m; draft 11.9 m.

Type: Ship (hazmat cat A). MMSI: 538004160.

Date/timePositionNaut miles runAvg speedWind from/ knotsBaromVisibWave heightAir tempDewpointWater temp
2014-Nov-21 16:32N 40°40' W 074°05'0 0.0
2014-Nov-21 15:32N 40°40' W 074°05'0 0.0
2014-Nov-21 14:32N 40°40' W 074°05'0 0.0
2014-Nov-21 13:32N 40°40' W 074°05'0 0.0
2014-Nov-21 12:32N 40°40' W 074°05'0 0.0
2014-Nov-21 11:32N 40°40' W 074°05'0 0.0
2014-Nov-21 10:32N 40°40' W 074°05'0 0.0
2014-Nov-21 09:32N 40°40' W 074°05'0 0.0
2014-Nov-21 08:32N 40°40' W 074°05'0 0.0
2014-Nov-21 07:32N 40°40' W 074°05'0 0.0
2014-Nov-21 06:32N 40°40' W 074°05'0 0.0
2014-Nov-21 05:32N 40°40' W 074°05'0 0.0
2014-Nov-21 04:32N 40°40' W 074°05'0 0.0
2014-Nov-21 03:32N 40°40' W 074°05'0 0.0
2014-Nov-21 02:32N 40°40' W 074°05'0 0.0
2014-Nov-21 01:29N 40°40' W 074°05'0 0.0
2014-Nov-21 00:32N 40°40' W 074°05'0 0.0
2014-Nov-20 23:32N 40°40' W 074°05'0 0.0
2014-Nov-20 22:32N 40°40' W 074°05'0 0.0
2014-Nov-20 21:32N 40°40' W 074°05'0 0.0
2014-Nov-20 20:33N 40°40' W 074°05'0 0.0
2014-Nov-20 19:33N 40°40' W 074°05'0 0.0
2014-Nov-20 18:33N 40°40' W 074°05'0 0.0
2014-Nov-20 17:33N 40°40' W 074°05'0 0.0
2014-Nov-20 16:33N 40°40' W 074°05'0 0.0
2014-Nov-20 15:33N 40°40' W 074°05'0 0.0
2014-Nov-20 14:33N 40°40' W 074°05'0 0.0
2014-Nov-20 13:33N 40°40' W 074°05'0 0.0
2014-Nov-20 12:33N 40°40' W 074°05'1 1.4
2014-Nov-20 11:33N 40°39' W 074°03'1010.4
2014-Nov-20 10:33N 40°30' W 073°57'9 8.9
2014-Nov-20 09:33N 40°26' W 073°47'9 8.4
2014-Nov-20 08:28N 40°21' W 073°37'42 8.0
2014-Nov-20 03:15N 39°57' W 072°52'6 8.3
2014-Nov-20 02:33N 39°53' W 072°46'8 8.5
2014-Nov-20 01:33N 39°48' W 072°37'8 8.5
2014-Nov-20 00:34N 39°44' W 072°28'8 8.3
2014-Nov-19 23:33N 39°39' W 072°19'37 9.0
2014-Nov-19 19:24N 39°17' W 071°40'  
2014-Nov-13 17:34N 36°00' W 026°06'1616.4
2014-Nov-13 16:33N 35°60' W 025°45'1616.2
2014-Nov-13 15:34N 35°58' W 025°25'1616.4
2014-Nov-13 14:34N 35°57' W 025°05'1616.2
2014-Nov-13 13:34N 35°57' W 024°45'1616.1
2014-Nov-13 12:33N 35°58' W 024°25'1616.1
2014-Nov-13 11:34N 35°58' W 024°05'  
Track history (hours):
 
Tides and Currents Weather Stations Pressure Air Temp Water Temp Dewpoint Dewpoint Depression Visibility Wind Speed Wind Dir Waves Ship Positions

Al Rawdah

Last reported at 2014-Nov-21 16:32 UTC. Time now 2014-Nov-21 16:37 UTC.
Position N 40°40' W 074°05'.

Length 307 m; draft 11.9 m.

Type: Ship (hazmat cat A). MMSI: 538004160.

Date/timePositionNaut miles runAvg speedWind from/ knotsBaromVisibWave heightAir tempDewpointWater temp
2014-Nov-21 16:32N 40°40' W 074°05'0 0.0
2014-Nov-21 15:32N 40°40' W 074°05'0 0.0
2014-Nov-21 14:32N 40°40' W 074°05'0 0.0
2014-Nov-21 13:32N 40°40' W 074°05'0 0.0
2014-Nov-21 12:32N 40°40' W 074°05'0 0.0
2014-Nov-21 11:32N 40°40' W 074°05'0 0.0
2014-Nov-21 10:32N 40°40' W 074°05'0 0.0
2014-Nov-21 09:32N 40°40' W 074°05'0 0.0
2014-Nov-21 08:32N 40°40' W 074°05'0 0.0
2014-Nov-21 07:32N 40°40' W 074°05'0 0.0
2014-Nov-21 06:32N 40°40' W 074°05'0 0.0
2014-Nov-21 05:32N 40°40' W 074°05'0 0.0
2014-Nov-21 04:32N 40°40' W 074°05'0 0.0
2014-Nov-21 03:32N 40°40' W 074°05'0 0.0
2014-Nov-21 02:32N 40°40' W 074°05'0 0.0
2014-Nov-21 01:29N 40°40' W 074°05'0 0.0
2014-Nov-21 00:32N 40°40' W 074°05'0 0.0
2014-Nov-20 23:32N 40°40' W 074°05'0 0.0
2014-Nov-20 22:32N 40°40' W 074°05'0 0.0
2014-Nov-20 21:32N 40°40' W 074°05'0 0.0
2014-Nov-20 20:33N 40°40' W 074°05'0 0.0
2014-Nov-20 19:33N 40°40' W 074°05'0 0.0
2014-Nov-20 18:33N 40°40' W 074°05'0 0.0
2014-Nov-20 17:33N 40°40' W 074°05'0 0.0
2014-Nov-20 16:33N 40°40' W 074°05'0 0.0
2014-Nov-20 15:33N 40°40' W 074°05'0 0.0
2014-Nov-20 14:33N 40°40' W 074°05'0 0.0
2014-Nov-20 13:33N 40°40' W 074°05'0 0.0
2014-Nov-20 12:33N 40°40' W 074°05'1 1.4
2014-Nov-20 11:33N 40°39' W 074°03'1010.4
2014-Nov-20 10:33N 40°30' W 073°57'9 8.9
2014-Nov-20 09:33N 40°26' W 073°47'9 8.4
2014-Nov-20 08:28N 40°21' W 073°37'42 8.0
2014-Nov-20 03:15N 39°57' W 072°52'6 8.3
2014-Nov-20 02:33N 39°53' W 072°46'8 8.5
2014-Nov-20 01:33N 39°48' W 072°37'8 8.5
2014-Nov-20 00:34N 39°44' W 072°28'8 8.3
2014-Nov-19 23:33N 39°39' W 072°19'37 9.0
2014-Nov-19 19:24N 39°17' W 071°40'  
2014-Nov-13 17:34N 36°00' W 026°06'1616.4
2014-Nov-13 16:33N 35°60' W 025°45'1616.2
2014-Nov-13 15:34N 35°58' W 025°25'1616.4
2014-Nov-13 14:34N 35°57' W 025°05'1616.2
2014-Nov-13 13:34N 35°57' W 024°45'1616.1
2014-Nov-13 12:33N 35°58' W 024°25'1616.1
2014-Nov-13 11:34N 35°58' W 024°05'  

Dump ship's entire track history